createdAt,value
2024-05-09T00:00:38.000Z,0
2024-05-09T00:01:54.000Z,0
2024-05-09T00:03:10.599Z,0
2024-05-09T00:04:26.000Z,0
2024-05-09T00:05:25.002Z,0
2024-05-09T00:06:59.000Z,0
2024-05-09T00:07:57.390Z,0
2024-05-09T00:09:31.570Z,0
2024-05-09T00:10:46.793Z,0
2024-05-09T00:12:03.000Z,0
2024-05-09T00:13:19.168Z,0
2024-05-09T00:14:35.000Z,0
2024-05-09T00:15:51.561Z,0
2024-05-09T00:17:07.742Z,0
2024-05-09T00:18:23.000Z,0
2024-05-09T00:19:40.000Z,0
2024-05-09T00:20:56.327Z,0
2024-05-09T00:22:12.000Z,0
2024-05-09T00:23:28.000Z,0
2024-05-09T00:24:44.914Z,0
2024-05-09T00:26:01.000Z,0
2024-05-09T00:27:17.309Z,0
2024-05-09T00:28:33.485Z,0
2024-05-09T00:29:49.000Z,0
2024-05-09T00:31:05.888Z,0
2024-05-09T00:32:21.094Z,0
2024-05-09T00:33:37.000Z,0
2024-05-09T00:34:53.486Z,0
2024-05-09T00:36:09.680Z,0
2024-05-09T00:37:25.858Z,0
2024-05-09T00:38:42.064Z,0
2024-05-09T00:39:58.000Z,0
2024-05-09T00:41:14.000Z,0
2024-05-09T00:42:30.000Z,0
2024-05-09T00:43:28.842Z,0
2024-05-09T00:45:03.016Z,0
2024-05-09T00:46:01.229Z,0
2024-05-09T00:47:35.404Z,0
2024-05-09T00:48:50.000Z,0
2024-05-09T00:50:06.000Z,0
2024-05-09T00:51:23.000Z,0
2024-05-09T00:52:39.000Z,0
2024-05-09T00:53:55.393Z,0
2024-05-09T00:55:11.000Z,0
2024-05-09T00:57:03.000Z,0
2024-05-09T00:57:44.000Z,0
2024-05-09T00:58:42.180Z,0
2024-05-09T01:00:16.000Z,0
2024-05-09T01:01:32.000Z,0
2024-05-09T01:02:48.000Z,0
2024-05-09T01:04:04.954Z,0
2024-05-09T01:05:21.135Z,0
2024-05-09T01:06:36.338Z,0
2024-05-09T01:07:52.540Z,0
2024-05-09T01:08:50.743Z,0
2024-05-09T01:10:24.000Z,0
2024-05-09T01:11:23.130Z,0
2024-05-09T01:12:57.000Z,0
2024-05-09T01:14:13.000Z,0
2024-05-09T01:15:29.000Z,0
2024-05-09T01:16:27.905Z,0
2024-05-09T01:18:02.000Z,0
2024-05-09T01:19:18.000Z,0
2024-05-09T01:20:34.476Z,0
2024-05-09T01:21:50.675Z,0
2024-05-09T01:23:05.000Z,0
2024-05-09T01:24:22.063Z,0
2024-05-09T01:25:38.254Z,0
2024-05-09T01:26:54.000Z,0
2024-05-09T01:28:10.000Z,0
2024-05-09T01:29:26.848Z,0
2024-05-09T01:30:43.000Z,0
2024-05-09T01:31:59.225Z,0
2024-05-09T01:33:15.424Z,0
2024-05-09T01:34:31.000Z,0
2024-05-09T01:35:47.000Z,0
2024-05-09T01:36:46.012Z,0
2024-05-09T01:38:20.000Z,0
2024-05-09T01:39:36.000Z,0
2024-05-09T01:40:52.586Z,0
2024-05-09T01:42:07.804Z,0
2024-05-09T01:43:23.999Z,0
2024-05-09T01:44:40.000Z,0
2024-05-09T01:45:56.000Z,0
2024-05-09T01:46:54.580Z,0
2024-05-09T01:48:28.762Z,0
2024-05-09T01:49:44.957Z,0
2024-05-09T01:51:01.000Z,0
2024-05-09T01:52:17.000Z,0
2024-05-09T01:53:33.000Z,0
2024-05-09T01:54:49.000Z,0
2024-05-09T01:56:05.920Z,0
2024-05-09T01:57:22.118Z,0
2024-05-09T01:58:37.335Z,0
2024-05-09T01:59:53.523Z,0
2024-05-09T02:01:09.719Z,0
2024-05-09T02:02:07.914Z,0
2024-05-09T02:03:42.000Z,0
2024-05-09T02:04:58.000Z,0
2024-05-09T02:06:14.000Z,0
2024-05-09T02:07:12.687Z,0
2024-05-09T02:08:46.880Z,0
2024-05-09T02:09:45.073Z,0
2024-05-09T02:11:19.266Z,0
2024-05-09T02:12:35.441Z,0
2024-05-09T02:13:51.647Z,0
2024-05-09T02:14:49.846Z,0
2024-05-09T02:16:23.000Z,0
2024-05-09T02:17:39.000Z,0
2024-05-09T02:18:55.000Z,0
2024-05-09T02:19:53.636Z,0
2024-05-09T02:21:27.000Z,0
2024-05-09T02:22:44.006Z,0
2024-05-09T02:24:00.197Z,0
2024-05-09T02:24:58.408Z,0
2024-05-09T02:26:32.000Z,0
2024-05-09T02:27:30.795Z,0
2024-05-09T02:29:04.985Z,0
2024-05-09T02:30:57.000Z,0
2024-05-09T02:31:37.000Z,0
2024-05-09T02:32:35.568Z,0
2024-05-09T02:34:09.751Z,0
2024-05-09T02:36:00.000Z,0
2024-05-09T02:36:41.156Z,0
2024-05-09T02:37:57.338Z,0
2024-05-09T02:39:13.000Z,0
2024-05-09T02:40:29.725Z,4
2024-05-09T02:41:45.927Z,4
2024-05-09T02:43:02.129Z,4
2024-05-09T02:44:18.318Z,0
2024-05-09T02:45:16.515Z,0
2024-05-09T02:46:50.000Z,4
2024-05-09T02:48:06.883Z,4
2024-05-09T02:49:23.083Z,4
2024-05-09T02:50:39.000Z,4
2024-05-09T02:51:55.000Z,8
2024-05-09T02:53:11.655Z,8
2024-05-09T02:54:26.000Z,8
2024-05-09T02:55:43.000Z,8
2024-05-09T02:56:59.249Z,8
2024-05-09T02:58:15.447Z,12
2024-05-09T02:59:31.641Z,16
2024-05-09T03:00:47.000Z,16
2024-05-09T03:02:04.000Z,16
2024-05-09T03:03:02.231Z,20
2024-05-09T03:04:36.412Z,24
2024-05-09T03:05:34.619Z,28
2024-05-09T03:07:08.797Z,36
2024-05-09T03:08:25.000Z,44
2024-05-09T03:09:41.000Z,48
2024-05-09T03:10:39.396Z,56
2024-05-09T03:12:13.000Z,64
2024-05-09T03:13:11.785Z,72
2024-05-09T03:14:44.985Z,88
2024-05-09T03:16:01.182Z,100
2024-05-09T03:17:17.000Z,112
2024-05-09T03:18:15.581Z,128
2024-05-09T03:19:49.000Z,140
2024-05-09T03:21:05.000Z,156
2024-05-09T03:22:22.000Z,176
2024-05-09T03:23:38.347Z,196
2024-05-09T03:24:54.000Z,220
2024-05-09T03:26:10.737Z,244
2024-05-09T03:27:26.935Z,268
2024-05-09T03:28:43.125Z,296
2024-05-09T03:29:59.000Z,324
2024-05-09T03:31:15.508Z,352
2024-05-09T03:32:30.000Z,384
2024-05-09T03:33:46.932Z,416
2024-05-09T03:35:03.000Z,448
2024-05-09T03:36:19.000Z,484
2024-05-09T03:37:35.000Z,520
2024-05-09T03:38:51.699Z,556
2024-05-09T03:40:07.000Z,596
2024-05-09T03:41:24.093Z,640
2024-05-09T03:42:40.000Z,680
2024-05-09T03:43:38.493Z,720
2024-05-09T03:45:12.000Z,764
2024-05-09T03:46:28.000Z,808
2024-05-09T03:47:45.000Z,852
2024-05-09T03:48:43.273Z,900
2024-05-09T03:50:17.458Z,944
2024-05-09T03:51:14.680Z,992
2024-05-09T03:52:48.000Z,1040
2024-05-09T03:54:05.060Z,1100
2024-05-09T03:55:21.000Z,1228
2024-05-09T03:56:37.444Z,1400
2024-05-09T03:57:53.645Z,1512
2024-05-09T03:59:09.000Z,1404
2024-05-09T04:00:26.030Z,1356
2024-05-09T04:02:18.000Z,1380
2024-05-09T04:02:58.000Z,1424
2024-05-09T04:04:14.614Z,1472
2024-05-09T04:05:30.816Z,1520
2024-05-09T04:06:47.000Z,1568
2024-05-09T04:08:02.000Z,1616
2024-05-09T04:09:00.427Z,1664
2024-05-09T04:10:34.000Z,1712
2024-05-09T04:11:50.000Z,1756
2024-05-09T04:13:06.996Z,1804
2024-05-09T04:14:23.000Z,1852
2024-05-09T04:15:39.390Z,1896
2024-05-09T04:16:55.000Z,1940
2024-05-09T04:18:11.794Z,1984
2024-05-09T04:19:27.989Z,2028
2024-05-09T04:20:44.167Z,2072
2024-05-09T04:21:42.379Z,2112
2024-05-09T04:23:16.000Z,2160
2024-05-09T04:24:32.000Z,2200
2024-05-09T04:25:48.000Z,2244
2024-05-09T04:26:47.159Z,2288
2024-05-09T04:28:21.000Z,2328
2024-05-09T04:29:36.543Z,2368
2024-05-09T04:30:52.743Z,2408
2024-05-09T04:31:50.953Z,2444
2024-05-09T04:33:25.000Z,2480
2024-05-09T04:34:23.343Z,2520
2024-05-09T04:35:57.526Z,2552
2024-05-09T04:37:13.000Z,2584
2024-05-09T04:38:29.000Z,2620
2024-05-09T04:39:46.105Z,2652
2024-05-09T04:41:02.000Z,2680
2024-05-09T04:42:00.514Z,2712
2024-05-09T04:43:34.000Z,2744
2024-05-09T04:44:32.904Z,2772
2024-05-09T04:46:06.000Z,2796
2024-05-09T04:47:04.307Z,2820
2024-05-09T04:48:38.000Z,2848
2024-05-09T04:49:54.000Z,2876
2024-05-09T04:51:10.887Z,2900
2024-05-09T04:52:27.000Z,2892
2024-05-09T04:53:43.000Z,2960
2024-05-09T04:54:59.462Z,2980
2024-05-09T04:56:15.673Z,2992
2024-05-09T04:57:31.857Z,3000
2024-05-09T04:58:48.000Z,3052
2024-05-09T05:00:04.246Z,3076
2024-05-09T05:01:20.000Z,3124
2024-05-09T05:02:36.000Z,3140
2024-05-09T05:03:52.000Z,3164
2024-05-09T05:05:09.023Z,3172
2024-05-09T05:06:24.000Z,3184
2024-05-09T05:07:22.442Z,3208
2024-05-09T05:08:56.000Z,3232
2024-05-09T05:10:12.815Z,3152
2024-05-09T05:11:29.000Z,3088
2024-05-09T05:12:27.223Z,3008
2024-05-09T05:14:01.000Z,2936
2024-05-09T05:15:17.000Z,2988
2024-05-09T05:16:33.000Z,3092
2024-05-09T05:17:50.000Z,3256
2024-05-09T05:19:06.200Z,3220
2024-05-09T05:20:58.000Z,3412
2024-05-09T05:21:38.000Z,3448
2024-05-09T05:22:36.785Z,3404
2024-05-09T05:24:10.972Z,3440
2024-05-09T05:25:27.000Z,3368
2024-05-09T05:26:42.000Z,3408
2024-05-09T05:27:58.000Z,3520
2024-05-09T05:29:14.000Z,3556
2024-05-09T05:30:30.000Z,3560
2024-05-09T05:31:47.000Z,3624
2024-05-09T05:33:03.000Z,3720
2024-05-09T05:34:19.000Z,3704
2024-05-09T05:35:35.000Z,3656
2024-05-09T05:36:51.000Z,3740
2024-05-09T05:37:50.146Z,3764
2024-05-09T05:39:24.000Z,3784
2024-05-09T05:40:40.000Z,3816
2024-05-09T05:41:56.000Z,4008
2024-05-09T05:43:12.000Z,3836
2024-05-09T05:44:29.000Z,3792
2024-05-09T05:45:45.318Z,3796
2024-05-09T05:47:01.497Z,3792
2024-05-09T05:47:59.710Z,3836
2024-05-09T05:49:32.000Z,3768
2024-05-09T05:50:49.000Z,3548
2024-05-09T05:52:05.307Z,3508
2024-05-09T05:53:21.000Z,3792
2024-05-09T05:55:13.000Z,3908
2024-05-09T05:55:35.898Z,3960
2024-05-09T05:57:10.000Z,3976
2024-05-09T05:58:26.000Z,3968
2024-05-09T05:59:41.502Z,3740
2024-05-09T06:00:57.707Z,3964
2024-05-09T06:02:13.000Z,4036
2024-05-09T06:03:12.095Z,4044
2024-05-09T06:04:46.000Z,4072
2024-05-09T06:06:02.000Z,4100
2024-05-09T06:07:18.000Z,4104
2024-05-09T06:08:16.877Z,4116
2024-05-09T06:09:51.000Z,4076
2024-05-09T06:11:07.268Z,4212
2024-05-09T06:12:23.000Z,4324
2024-05-09T06:13:39.648Z,4328
2024-05-09T06:14:55.000Z,4344
2024-05-09T06:15:54.050Z,4356
2024-05-09T06:17:27.000Z,4360
2024-05-09T06:18:43.000Z,4340
2024-05-09T06:19:59.000Z,4332
2024-05-09T06:21:15.000Z,4340
2024-05-09T06:23:07.000Z,4348
2024-05-09T06:23:48.232Z,4300
2024-05-09T06:25:04.422Z,4320
2024-05-09T06:26:20.619Z,4376
2024-05-09T06:28:12.000Z,4384
2024-05-09T06:28:35.022Z,4408
2024-05-09T06:30:09.200Z,4384
2024-05-09T06:31:25.000Z,4356
2024-05-09T06:32:41.000Z,4400
2024-05-09T06:33:39.803Z,4384
2024-05-09T06:35:14.000Z,4468
2024-05-09T06:36:30.364Z,4552
2024-05-09T06:37:45.580Z,4544
2024-05-09T06:38:43.779Z,4608
2024-05-09T06:40:17.000Z,4592
2024-05-09T06:41:34.000Z,4576
2024-05-09T06:42:50.364Z,4624
2024-05-09T06:44:06.000Z,4680
2024-05-09T06:45:22.748Z,4684
2024-05-09T06:46:20.948Z,4696
2024-05-09T06:47:55.136Z,4704
2024-05-09T06:49:11.000Z,4720
2024-05-09T06:50:27.000Z,4732
2024-05-09T06:51:25.728Z,4732
2024-05-09T06:52:59.913Z,4768
2024-05-09T06:54:15.130Z,4752
2024-05-09T06:55:31.000Z,4760
2024-05-09T06:56:47.524Z,4764
2024-05-09T06:58:03.000Z,4780
2024-05-09T06:59:19.000Z,4792
2024-05-09T07:00:36.107Z,4808
2024-05-09T07:01:52.294Z,4816
2024-05-09T07:03:08.486Z,4904
2024-05-09T07:04:24.000Z,4816
2024-05-09T07:05:40.000Z,4852
2024-05-09T07:06:39.083Z,4860
2024-05-09T07:08:13.267Z,4860
2024-05-09T07:09:29.000Z,4748
2024-05-09T07:10:45.000Z,4676
2024-05-09T07:12:01.000Z,4796
2024-05-09T07:13:18.000Z,4808
2024-05-09T07:14:34.000Z,4868
2024-05-09T07:15:49.454Z,4916
2024-05-09T07:17:05.644Z,4896
2024-05-09T07:18:21.000Z,4944
2024-05-09T07:19:20.044Z,4912
2024-05-09T07:20:54.000Z,4900
2024-05-09T07:22:10.000Z,4904
2024-05-09T07:23:26.000Z,4944
2024-05-09T07:24:42.000Z,4944
2024-05-09T07:25:59.000Z,4980
2024-05-09T07:27:15.199Z,4976
2024-05-09T07:28:31.000Z,4996
2024-05-09T07:29:47.000Z,4980
2024-05-09T07:31:03.793Z,4988
2024-05-09T07:32:01.994Z,5000
2024-05-09T07:33:35.187Z,5004
2024-05-09T07:34:51.000Z,5000
2024-05-09T07:36:07.000Z,4912
2024-05-09T07:37:23.777Z,4916
2024-05-09T07:38:39.979Z,5040
2024-05-09T07:39:56.177Z,4956
2024-05-09T07:41:12.000Z,4952
2024-05-09T07:42:28.560Z,5028
2024-05-09T07:43:44.000Z,5044
2024-05-09T07:44:42.957Z,5052
2024-05-09T07:46:17.136Z,5048
2024-05-09T07:47:33.347Z,5040
2024-05-09T07:48:49.000Z,5012
2024-05-09T07:50:05.732Z,5040
2024-05-09T07:51:21.932Z,5032
2024-05-09T07:52:38.122Z,5052
2024-05-09T07:53:53.322Z,5092
2024-05-09T07:55:09.524Z,5000
2024-05-09T07:56:25.000Z,4908
2024-05-09T07:57:23.921Z,5024
2024-05-09T07:58:58.000Z,5044
2024-05-09T08:00:14.000Z,5076
2024-05-09T08:01:30.000Z,5064
2024-05-09T08:02:46.000Z,5048
2024-05-09T08:04:02.000Z,5080
2024-05-09T08:05:19.000Z,5064
2024-05-09T08:06:35.000Z,5024
2024-05-09T08:07:51.000Z,5124
2024-05-09T08:09:07.000Z,5112
2024-05-09T08:10:04.887Z,5116
2024-05-09T08:11:39.000Z,5124
2024-05-09T08:12:55.000Z,5132
2024-05-09T08:14:11.000Z,5152
2024-05-09T08:15:27.668Z,5160
2024-05-09T08:16:43.000Z,5164
2024-05-09T08:18:00.057Z,5168
2024-05-09T08:19:16.000Z,5168
2024-05-09T08:20:32.000Z,5156
2024-05-09T08:21:48.000Z,5156
2024-05-09T08:23:04.823Z,5160
2024-05-09T08:24:21.000Z,5192
2024-05-09T08:25:37.000Z,5164
2024-05-09T08:26:53.421Z,5164
2024-05-09T08:28:09.000Z,5172
2024-05-09T08:29:25.000Z,5160
2024-05-09T08:30:42.011Z,5172
2024-05-09T08:31:58.197Z,5176
2024-05-09T08:32:55.415Z,5184
2024-05-09T08:34:29.611Z,5188
2024-05-09T08:35:27.806Z,5204
2024-05-09T08:37:02.000Z,5204
2024-05-09T08:38:18.000Z,5208
2024-05-09T08:39:34.387Z,5552
2024-05-09T08:40:32.587Z,5204
2024-05-09T08:42:06.777Z,5192
2024-05-09T08:43:22.967Z,5192
2024-05-09T08:44:39.000Z,5196
2024-05-09T08:45:55.000Z,5216
2024-05-09T08:47:47.000Z,5220
2024-05-09T08:48:27.745Z,5204
2024-05-09T08:49:42.000Z,5204
2024-05-09T08:50:59.000Z,6332
2024-05-09T08:52:15.000Z,5260
2024-05-09T08:53:31.000Z,5284
2024-05-09T08:54:47.000Z,5288
2024-05-09T08:56:03.932Z,5300
2024-05-09T08:57:20.131Z,5968
2024-05-09T08:58:36.327Z,5260
2024-05-09T08:59:52.535Z,5264
2024-05-09T09:00:50.731Z,5424
2024-05-09T09:02:24.000Z,5256
2024-05-09T09:03:41.000Z,5244
2024-05-09T09:05:33.000Z,5256
2024-05-09T09:06:13.000Z,5252
2024-05-09T09:07:29.000Z,5260
2024-05-09T09:08:45.889Z,5268
2024-05-09T09:10:02.000Z,5276
2024-05-09T09:10:59.309Z,5256
2024-05-09T09:12:33.000Z,5252
2024-05-09T09:13:49.700Z,5296
2024-05-09T09:15:05.000Z,5308
2024-05-09T09:16:22.000Z,5304
2024-05-09T09:17:38.275Z,5312
2024-05-09T09:18:54.000Z,5324
2024-05-09T09:20:10.000Z,5580
2024-05-09T09:21:26.000Z,5360
2024-05-09T09:22:43.000Z,5416
2024-05-09T09:23:59.000Z,5476
2024-05-09T09:25:15.462Z,6076
2024-05-09T09:26:31.653Z,5996
2024-05-09T09:27:47.000Z,5504
2024-05-09T09:29:04.000Z,5528
2024-05-09T09:30:20.000Z,5632
2024-05-09T09:31:36.439Z,5540
2024-05-09T09:32:52.000Z,5556
2024-05-09T09:34:08.000Z,5564
2024-05-09T09:36:00.000Z,5592
2024-05-09T09:36:41.000Z,5592
2024-05-09T09:37:57.000Z,5604
2024-05-09T09:39:13.594Z,5916
2024-05-09T09:40:28.818Z,5852
2024-05-09T09:41:45.000Z,5576
2024-05-09T09:43:01.000Z,5568
2024-05-09T09:44:17.000Z,5568
2024-05-09T09:45:33.605Z,5636
2024-05-09T09:46:49.000Z,5596
2024-05-09T09:48:06.000Z,5648
2024-05-09T09:49:22.000Z,5548
2024-05-09T09:50:38.387Z,5532
2024-05-09T09:51:36.582Z,5504
2024-05-09T09:53:10.778Z,5548
2024-05-09T09:54:26.000Z,5588
2024-05-09T09:55:43.162Z,5552
2024-05-09T09:56:58.000Z,5752
2024-05-09T09:58:14.000Z,5780
2024-05-09T09:59:30.771Z,5600
2024-05-09T10:00:46.967Z,5552
2024-05-09T10:01:45.161Z,5556
2024-05-09T10:03:19.357Z,6312
2024-05-09T10:04:35.000Z,5556
2024-05-09T10:05:51.732Z,5572
2024-05-09T10:07:07.000Z,5580
2024-05-09T10:08:24.000Z,5912
2024-05-09T10:09:40.000Z,5620
2024-05-09T10:10:56.000Z,5628
2024-05-09T10:12:12.000Z,5620
2024-05-09T10:13:28.000Z,5828
2024-05-09T10:14:45.000Z,5660
2024-05-09T10:16:01.000Z,5668
2024-05-09T10:16:59.506Z,5760
2024-05-09T10:18:32.000Z,5716
2024-05-09T10:19:48.000Z,5680
2024-05-09T10:21:05.000Z,5696
2024-05-09T10:22:21.000Z,5720
2024-05-09T10:23:37.000Z,5780
2024-05-09T10:24:53.684Z,5724
2024-05-09T10:26:09.891Z,5720
2024-05-09T10:27:26.000Z,5824
2024-05-09T10:28:42.286Z,6184
2024-05-09T10:29:58.486Z,5932
2024-05-09T10:31:14.000Z,5688
2024-05-09T10:32:30.876Z,5804
2024-05-09T10:33:47.069Z,5752
2024-05-09T10:35:03.267Z,5744
2024-05-09T10:36:19.456Z,5800
2024-05-09T10:37:35.655Z,5832
2024-05-09T10:38:51.000Z,5888
2024-05-09T10:39:50.051Z,5904
2024-05-09T10:41:24.243Z,6104
2024-05-09T10:42:22.441Z,5940
2024-05-09T10:43:56.000Z,5836
2024-05-09T10:45:12.000Z,5960
2024-05-09T10:46:29.000Z,6064
2024-05-09T10:47:45.218Z,6336
2024-05-09T10:49:00.000Z,6108
2024-05-09T10:50:16.000Z,6008
2024-05-09T10:51:32.824Z,6028
2024-05-09T10:52:49.022Z,6172
2024-05-09T10:54:05.000Z,6064
2024-05-09T10:55:21.403Z,6132
2024-05-09T10:56:37.592Z,6168
2024-05-09T10:57:53.000Z,6128
2024-05-09T10:59:09.981Z,6136
2024-05-09T11:00:26.192Z,6156
2024-05-09T11:01:42.000Z,6264
2024-05-09T11:02:58.000Z,6248
2024-05-09T11:04:14.000Z,6208
2024-05-09T11:05:29.986Z,6236
2024-05-09T11:06:46.000Z,6268
2024-05-09T11:08:02.000Z,6324
2024-05-09T11:09:18.000Z,6616
2024-05-09T11:10:34.769Z,6324
2024-05-09T11:11:50.966Z,6328
2024-05-09T11:13:07.160Z,6840
2024-05-09T11:14:23.341Z,6380
2024-05-09T11:15:39.550Z,6364
2024-05-09T11:16:55.000Z,6544
2024-05-09T11:18:11.000Z,6416
2024-05-09T11:19:28.121Z,6480
2024-05-09T11:20:26.332Z,6776
2024-05-09T11:23:16.000Z,6496
2024-05-09T11:24:32.000Z,6888
2024-05-09T11:25:49.000Z,6628
2024-05-09T11:27:05.000Z,6572
2024-05-09T11:28:21.493Z,6604
2024-05-09T11:29:37.000Z,7220
2024-05-09T11:30:53.891Z,6820
2024-05-09T11:32:10.000Z,6872
2024-05-09T11:33:08.286Z,7004
2024-05-09T11:34:42.472Z,7152
2024-05-09T11:35:58.000Z,7236
2024-05-09T11:37:14.862Z,7636
2024-05-09T11:38:31.061Z,7276
2024-05-09T11:39:47.262Z,7280
2024-05-09T11:41:03.000Z,7356
2024-05-09T11:42:19.647Z,7520
2024-05-09T11:43:35.000Z,7456
2024-05-09T11:44:51.044Z,7544
2024-05-09T11:46:07.000Z,7740
2024-05-09T11:47:23.000Z,7692
2024-05-09T11:48:39.000Z,7792
2024-05-09T11:49:55.838Z,8080
2024-05-09T11:51:12.000Z,8088
2024-05-09T11:52:28.000Z,8240
2024-05-09T11:54:20.000Z,8552
2024-05-09T11:55:00.000Z,9384
2024-05-09T11:55:58.820Z,10100
2024-05-09T11:57:33.000Z,10960
2024-05-09T11:58:49.193Z,11692
2024-05-09T12:00:05.404Z,12232
2024-05-09T12:01:20.000Z,11956
2024-05-09T12:02:36.000Z,11464
2024-05-09T12:03:53.002Z,9728
2024-05-09T12:05:09.189Z,9252
2024-05-09T12:06:25.402Z,8500
2024-05-09T12:07:41.000Z,8128
2024-05-09T12:08:57.000Z,7912
2024-05-09T12:10:13.989Z,7864
2024-05-09T12:11:30.169Z,7864
2024-05-09T12:12:46.371Z,8120
2024-05-09T12:14:02.000Z,8004
2024-05-09T12:15:18.752Z,7768
2024-05-09T12:16:34.961Z,7680
2024-05-09T12:17:51.000Z,7680
2024-05-09T12:19:07.000Z,7648
2024-05-09T12:20:23.000Z,7768
2024-05-09T12:21:39.000Z,7656
2024-05-09T12:22:55.930Z,7656
2024-05-09T12:23:54.139Z,7652
2024-05-09T12:25:27.349Z,7676
2024-05-09T12:26:43.000Z,7720
2024-05-09T12:27:59.000Z,7980
2024-05-09T12:28:57.936Z,7772
2024-05-09T12:30:32.131Z,7844
2024-05-09T12:31:48.000Z,7932
2024-05-09T12:33:04.000Z,7964
2024-05-09T12:34:20.716Z,7736
2024-05-09T12:35:36.000Z,7040
2024-05-09T12:36:35.106Z,6120
2024-05-09T12:38:45.000Z,5796
2024-05-09T12:39:25.000Z,5776
2024-05-09T12:40:41.686Z,5876
2024-05-09T12:41:57.000Z,5724
2024-05-09T12:43:14.000Z,5696
2024-05-09T12:44:29.000Z,5600
2024-05-09T12:45:45.457Z,5776
2024-05-09T12:47:01.000Z,5760
2024-05-09T12:48:17.000Z,5696
2024-05-09T12:49:16.053Z,5732
2024-05-09T12:50:50.234Z,5688
2024-05-09T12:52:06.000Z,5692
2024-05-09T12:53:22.618Z,5896
2024-05-09T12:54:38.000Z,5716
2024-05-09T12:55:55.000Z,5704
2024-05-09T12:57:11.208Z,5912
2024-05-09T12:58:27.397Z,5720
2024-05-09T12:59:43.582Z,5712
2024-05-09T13:00:58.796Z,5716
2024-05-09T13:02:15.000Z,5704
2024-05-09T13:03:31.000Z,6000
2024-05-09T13:04:47.000Z,5724
2024-05-09T13:06:03.565Z,5736
2024-05-09T13:07:19.768Z,5748
2024-05-09T13:08:35.964Z,5760
2024-05-09T13:09:52.155Z,5888
2024-05-09T13:11:08.357Z,5824
2024-05-09T13:12:24.542Z,5856
2024-05-09T13:13:40.731Z,5828
2024-05-09T13:14:56.923Z,5844
2024-05-09T13:16:13.000Z,5864
2024-05-09T13:17:29.000Z,5928
2024-05-09T13:18:45.000Z,6344
2024-05-09T13:20:01.698Z,7424
2024-05-09T13:21:53.000Z,8080
2024-05-09T13:22:33.000Z,8444
2024-05-09T13:23:49.303Z,8932
2024-05-09T13:25:05.000Z,9300
2024-05-09T13:26:21.690Z,9836
2024-05-09T13:27:37.883Z,11180
2024-05-09T13:28:54.068Z,14924
2024-05-09T13:30:10.000Z,20352
2024-05-09T13:31:26.000Z,16672
2024-05-09T13:32:24.657Z,14368
2024-05-09T13:33:58.850Z,13440
2024-05-09T13:34:57.043Z,12112
2024-05-09T13:36:31.232Z,11656
2024-05-09T13:37:29.430Z,11276
2024-05-09T13:39:02.625Z,10392
2024-05-09T13:40:00.832Z,10480
2024-05-09T13:41:35.000Z,10408
2024-05-09T13:42:51.000Z,10408
2024-05-09T13:44:07.000Z,10356
2024-05-09T13:45:23.605Z,9920
2024-05-09T13:46:39.000Z,9948
2024-05-09T13:47:56.000Z,10380
2024-05-09T13:49:12.000Z,10092
2024-05-09T13:50:28.361Z,9432
2024-05-09T13:51:44.572Z,9748
2024-05-09T13:52:42.765Z,9872
2024-05-09T13:54:16.000Z,9916
2024-05-09T13:55:33.000Z,7868
2024-05-09T13:56:49.334Z,7348
2024-05-09T13:58:05.000Z,7364
2024-05-09T13:59:03.732Z,7276
2024-05-09T14:00:36.000Z,7228
2024-05-09T14:01:53.135Z,7212
2024-05-09T14:03:09.000Z,7400
2024-05-09T14:04:25.000Z,7244
2024-05-09T14:05:41.000Z,7268
2024-05-09T14:06:57.000Z,7312
2024-05-09T14:08:14.000Z,7380
2024-05-09T14:09:30.000Z,7432
2024-05-09T14:10:46.000Z,7512
2024-05-09T14:12:02.000Z,7756
2024-05-09T14:13:00.877Z,7572
2024-05-09T14:14:35.000Z,7584
2024-05-09T14:15:51.000Z,7680
2024-05-09T14:17:07.443Z,7784
2024-05-09T14:18:05.651Z,7868
2024-05-09T14:19:39.000Z,7992
2024-05-09T14:20:56.000Z,8016
2024-05-09T14:22:12.228Z,7984
2024-05-09T14:23:28.412Z,8064
2024-05-09T14:24:44.000Z,8216
2024-05-09T14:26:00.805Z,8544
2024-05-09T14:27:17.000Z,8648
2024-05-09T14:28:33.185Z,8732
2024-05-09T14:29:30.406Z,8700
2024-05-09T14:30:46.599Z,8856
2024-05-09T14:32:20.773Z,8840
2024-05-09T14:33:36.000Z,8416
2024-05-09T14:34:53.171Z,8572
2024-05-09T14:35:51.372Z,9068
2024-05-09T14:37:25.550Z,9268
2024-05-09T14:38:22.782Z,9944
2024-05-09T14:39:56.000Z,9704
2024-05-09T14:40:55.169Z,9840
2024-05-09T14:42:29.000Z,9972
2024-05-09T14:43:45.537Z,10072
2024-05-09T14:45:01.000Z,10096
2024-05-09T14:46:17.000Z,10608
2024-05-09T14:47:34.134Z,10304
2024-05-09T14:48:50.331Z,10376
2024-05-09T14:50:06.519Z,10576
2024-05-09T14:51:22.717Z,10848
2024-05-09T14:52:38.905Z,10660
2024-05-09T14:53:55.097Z,10864
2024-05-09T14:55:11.288Z,11224
2024-05-09T14:56:26.000Z,11308
2024-05-09T14:57:42.000Z,11580
2024-05-09T14:58:58.000Z,11332
2024-05-09T15:00:50.000Z,11080
2024-05-09T15:01:13.279Z,11260
2024-05-09T15:02:47.000Z,11236
2024-05-09T15:04:03.000Z,10960
2024-05-09T15:05:19.000Z,11780
2024-05-09T15:06:36.053Z,11208
2024-05-09T15:07:52.228Z,12104
2024-05-09T15:09:08.000Z,11808
2024-05-09T15:10:24.000Z,11940
2024-05-09T15:11:40.000Z,12020
2024-05-09T15:12:57.000Z,12120
2024-05-09T15:14:13.000Z,12336
2024-05-09T15:15:29.388Z,12044
2024-05-09T15:16:44.000Z,11696
2024-05-09T15:18:00.000Z,12412
2024-05-09T15:19:17.000Z,12288
2024-05-09T15:20:33.000Z,11728
2024-05-09T15:21:49.384Z,11704
2024-05-09T15:23:05.577Z,11344
2024-05-09T15:24:21.000Z,11408
2024-05-09T15:25:37.959Z,11680
2024-05-09T15:26:54.161Z,11508
2024-05-09T15:28:10.000Z,11632
2024-05-09T15:29:26.542Z,11256
2024-05-09T15:30:42.000Z,11524
2024-05-09T15:31:40.936Z,11896
2024-05-09T15:33:15.000Z,11684
2024-05-09T15:34:12.335Z,11604
2024-05-09T15:35:46.000Z,11148
2024-05-09T15:37:02.000Z,12088
2024-05-09T15:38:18.000Z,11792
2024-05-09T15:39:17.110Z,11740
2024-05-09T15:40:51.000Z,11748
2024-05-09T15:42:07.000Z,11392
2024-05-09T15:43:23.000Z,11240
2024-05-09T15:44:39.869Z,11824
2024-05-09T15:45:56.000Z,12112
2024-05-09T15:47:12.000Z,11988
2024-05-09T15:48:28.000Z,12016
2024-05-09T15:49:44.000Z,12124
2024-05-09T15:51:00.000Z,12648
2024-05-09T15:52:17.000Z,12436
2024-05-09T15:53:33.219Z,12360
2024-05-09T15:54:48.000Z,11700
2024-05-09T15:56:04.000Z,12240
2024-05-09T15:57:20.818Z,11880
2024-05-09T15:58:37.000Z,11040
2024-05-09T15:59:35.216Z,11112
2024-05-09T16:01:09.000Z,11096
2024-05-09T16:02:25.000Z,11156
2024-05-09T16:03:41.778Z,10452
2024-05-09T16:04:58.000Z,10472
2024-05-09T16:06:14.184Z,10804
2024-05-09T16:07:30.371Z,10732
2024-05-09T16:08:46.557Z,10704
2024-05-09T16:10:38.000Z,10672
2024-05-09T16:11:18.000Z,10384
2024-05-09T16:12:35.137Z,10616
2024-05-09T16:13:51.000Z,11080
2024-05-09T16:15:07.539Z,10848
2024-05-09T16:16:23.000Z,10628
2024-05-09T16:17:39.000Z,10924
2024-05-09T16:18:56.103Z,10860
2024-05-09T16:20:12.300Z,10608
2024-05-09T16:21:28.000Z,10804
2024-05-09T16:22:44.688Z,10424
2024-05-09T16:24:00.000Z,10180
2024-05-09T16:25:17.000Z,9756
2024-05-09T16:26:33.262Z,9216
2024-05-09T16:27:48.490Z,9464
2024-05-09T16:29:04.000Z,9348
2024-05-09T16:30:20.870Z,9240
2024-05-09T16:31:37.053Z,9220
2024-05-09T16:32:53.261Z,8920
2024-05-09T16:34:09.000Z,8616
2024-05-09T16:35:25.000Z,8420
2024-05-09T16:36:41.000Z,8308
2024-05-09T16:37:58.030Z,8180
2024-05-09T16:39:14.215Z,8060
2024-05-09T16:40:30.000Z,8132
2024-05-09T16:41:46.000Z,8072
2024-05-09T16:43:02.000Z,8004
2024-05-09T16:44:19.000Z,8312
2024-05-09T16:45:35.189Z,8792
2024-05-09T16:46:51.371Z,10600
2024-05-09T16:48:07.000Z,14320
2024-05-09T16:49:23.000Z,15332
2024-05-09T16:50:21.968Z,15936
2024-05-09T16:51:56.000Z,16384
2024-05-09T16:53:12.000Z,17888
2024-05-09T16:54:28.538Z,17696
2024-05-09T16:55:43.000Z,16096
2024-05-09T16:56:59.000Z,16064
2024-05-09T16:58:16.136Z,16736
2024-05-09T16:59:32.335Z,17120
2024-05-09T17:00:48.000Z,15872
2024-05-09T17:02:40.000Z,13108
2024-05-09T17:03:02.915Z,12432
2024-05-09T17:04:37.101Z,12836
2024-05-09T17:05:53.000Z,13280
2024-05-09T17:07:09.495Z,13100
2024-05-09T17:08:25.000Z,11500
2024-05-09T17:09:41.000Z,10568